Westhampton, Virginia
Current Conditions -  °F | °C
As of 11:08 AM on Wednesday 26 Nov 2014 (Local Time) from KOFP Reporting Station
Light Rain Light Rain  
Wind Chill: 33°   Ceiling: 4800
Heat Index: 38°   Visibility: 4mi
Dew Point: 37°   Wind: 6mph
Humidity: 97%   Direction: NA
Pressure: 29.98"   Gusts: 21mph
Location:  37.5803°N, 77.5202°W
Report Text: KOFP 261608Z AUTO VRB05G18KT 4SM -RA BR SCT007 BKN048 OVC080 03/03 A2998 RMK AO2 P0001 T00330028
Loading
Personal Weather Stations






























Interactive Weather Map New forecast layout! Learn more

10-Day Weather Forecast

Advertisements
Track Severe Weather on mobile